Gillam, Canada
Current Conditions -  °F | °C
As of 8:00 PM on Thursday 20 Nov 2014 (Local Time) from CYGX Reporting Station
Few Clouds Few Clouds  
Wind Chill: -25°   Ceiling: Unl
Heat Index: -13°   Visibility: 15mi
Dew Point: -18°   Wind: 5mph
Humidity: 77%   Direction: 220°SW
Pressure: 29.84"   Gusts: NA
Location:  56.35°N, 94.71°W
Report Text: CYGX 210200Z 22004KT 15SM FEW200 M25/M28 A2984 RMK CI2 SLP127
Loading
Personal Weather Stations






























Interactive Weather Map New forecast layout! Learn more

10-Day Weather Forecast

Advertisements
Track Severe Weather on mobile